BAW31R EHRD-EGKK
Flight info
| Callsign | BAW31R |
|---|---|
| Flight time | N/A |
| Altitude | 22000 |
| Route | ABNED Z344 AMRIV Q63 ARREK Y4 TEBRA |
| Aircraft | A20N/M-SDE2E3FGHIRWXY/LB1 |
Departure
| Time | N/A |
|---|---|
| Airport | Rotterdam The Hague Airport (EHRD) |
Arrival
| Time | 2026-05-03 20:26 |
|---|---|
| Airport | London Gatwick Airport (EGKK) |
| Time | Latitude | Longitude | Altitude | Speed | Heading |
|---|---|---|---|---|---|
| 2026-05-03 20:15 | 50.91554 | 0.45051 | 9775 ft | 286 kts | 263° |
| 2026-05-03 20:15 | 50.91653 | 0.41934 | 9359 ft | 284 kts | 284° |
| 2026-05-03 20:15 | 50.92207 | 0.38931 | 8964 ft | 282 kts | 287° |
| 2026-05-03 20:15 | 50.92763 | 0.35963 | 8552 ft | 281 kts | 286° |
| 2026-05-03 20:16 | 50.93314 | 0.32996 | 8162 ft | 279 kts | 286° |
| 2026-05-03 20:16 | 50.93847 | 0.30096 | 8011 ft | 268 kts | 286° |
| 2026-05-03 20:16 | 50.94384 | 0.27342 | 7911 ft | 255 kts | 291° |
| 2026-05-03 20:16 | 50.95184 | 0.24913 | 7658 ft | 245 kts | 304° |
| 2026-05-03 20:17 | 50.96223 | 0.22788 | 7317 ft | 244 kts | 308° |
| 2026-05-03 20:17 | 50.97275 | 0.20680 | 6999 ft | 243 kts | 308° |
| 2026-05-03 20:17 | 50.98315 | 0.18573 | 6694 ft | 241 kts | 308° |
| 2026-05-03 20:17 | 50.99332 | 0.16503 | 6389 ft | 240 kts | 308° |
| 2026-05-03 20:18 | 51.00358 | 0.14412 | 6079 ft | 239 kts | 308° |
| 2026-05-03 20:18 | 51.01492 | 0.12498 | 5764 ft | 238 kts | 327° |
| 2026-05-03 20:18 | 51.03040 | 0.11666 | 5417 ft | 238 kts | 358° |
| 2026-05-03 20:18 | 51.04700 | 0.11751 | 5110 ft | 238 kts | 3° |
| 2026-05-03 20:19 | 51.06344 | 0.11928 | 4825 ft | 236 kts | 4° |
| 2026-05-03 20:19 | 51.07981 | 0.12107 | 4448 ft | 235 kts | 3° |
| 2026-05-03 20:19 | 51.09636 | 0.12277 | 3867 ft | 239 kts | 3° |
| 2026-05-03 20:19 | 51.11252 | 0.12431 | 3542 ft | 225 kts | 3° |
| 2026-05-03 20:20 | 51.12788 | 0.12567 | 3313 ft | 218 kts | 2° |
| 2026-05-03 20:20 | 51.14251 | 0.12684 | 3196 ft | 208 kts | 2° |
| 2026-05-03 20:20 | 51.15668 | 0.12763 | 3079 ft | 199 kts | 359° |
| 2026-05-03 20:20 | 51.17013 | 0.12493 | 2959 ft | 189 kts | 343° |
| 2026-05-03 20:21 | 51.18132 | 0.11666 | 2948 ft | 169 kts | 319° |
| 2026-05-03 20:21 | 51.18631 | 0.10120 | 2850 ft | 154 kts | 274° |
| 2026-05-03 20:21 | 51.18679 | 0.08474 | 2739 ft | 145 kts | 268° |
| 2026-05-03 20:21 | 51.18586 | 0.06869 | 2514 ft | 147 kts | 262° |
| 2026-05-03 20:22 | 51.18397 | 0.05252 | 2325 ft | 147 kts | 257° |
| 2026-05-03 20:22 | 51.18142 | 0.03701 | 2151 ft | 141 kts | 255° |
| 2026-05-03 20:22 | 51.17898 | 0.02227 | 2094 ft | 133 kts | 256° |
| 2026-05-03 20:22 | 51.17680 | 0.00842 | 2082 ft | 131 kts | 256° |
| 2026-05-03 20:23 | 51.17454 | -0.00564 | 2072 ft | 131 kts | 256° |
| 2026-05-03 20:23 | 51.17228 | -0.01966 | 2032 ft | 131 kts | 257° |
| 2026-05-03 20:23 | 51.17029 | -0.03388 | 1893 ft | 131 kts | 258° |
| 2026-05-03 20:23 | 51.16844 | -0.04793 | 1737 ft | 129 kts | 259° |
| 2026-05-03 20:24 | 51.16654 | -0.06192 | 1588 ft | 129 kts | 253° |
| 2026-05-03 20:24 | 51.16438 | -0.07592 | 1442 ft | 130 kts | 253° |
| 2026-05-03 20:24 | 51.16207 | -0.08977 | 1288 ft | 129 kts | 256° |
| 2026-05-03 20:24 | 51.16005 | -0.10371 | 1101 ft | 128 kts | 258° |
| 2026-05-03 20:25 | 51.15818 | -0.11758 | 947 ft | 128 kts | 258° |
| 2026-05-03 20:25 | 51.15633 | -0.13147 | 790 ft | 129 kts | 258° |
| 2026-05-03 20:25 | 51.15510 | -0.14073 | 619 ft | 127 kts | 258° |
| 2026-05-03 20:25 | 51.15313 | -0.15449 | 463 ft | 128 kts | 257° |
| 2026-05-03 20:26 | 51.15053 | -0.17281 | 240 ft | 126 kts | 258° |
| 2026-05-03 20:26 | 51.14931 | -0.18166 | 211 ft | 111 kts | 258° |
| 2026-05-03 20:26 | 51.14798 | -0.19153 | 217 ft | 78 kts | 257° |
| 2026-05-03 20:26 | 51.14763 | -0.19668 | 208 ft | 34 kts | 281° |
| 2026-05-03 20:27 | 51.14816 | -0.20028 | 211 ft | 16 kts | 296° |
| 2026-05-03 20:27 | 51.14861 | -0.20025 | 212 ft | 7 kts | 37° |
| 2026-05-03 20:27 | 51.14875 | -0.19935 | 209 ft | 11 kts | 79° |
| 2026-05-03 20:27 | 51.14897 | -0.19766 | 212 ft | 19 kts | 78° |
| 2026-05-03 20:28 | 51.14926 | -0.19542 | 207 ft | 23 kts | 78° |
| 2026-05-03 20:28 | 51.14963 | -0.19299 | 215 ft | 12 kts | 62° |
| 2026-05-03 20:28 | 51.15021 | -0.19274 | 206 ft | 9 kts | 347° |
| 2026-05-03 20:28 | 51.15103 | -0.19305 | 208 ft | 14 kts | 347° |
| 2026-05-03 20:29 | 51.15210 | -0.19343 | 205 ft | 18 kts | 347° |
| 2026-05-03 20:29 | 51.15330 | -0.19387 | 206 ft | 6 kts | 341° |
| 2026-05-03 20:29 | 51.15336 | -0.19369 | 212 ft | 5 kts | 86° |
| 2026-05-03 20:29 | 51.15325 | -0.19361 | 211 ft | 5 kts | 182° |
| 2026-05-03 20:30 | 51.15212 | -0.19344 | 205 ft | 23 kts | 168° |
| 2026-05-03 20:30 | 51.15070 | -0.19267 | 215 ft | 20 kts | 126° |
| 2026-05-03 20:30 | 51.15080 | -0.19104 | 207 ft | 16 kts | 77° |
| 2026-05-03 20:30 | 51.15106 | -0.18914 | 210 ft | 19 kts | 77° |
| 2026-05-03 20:31 | 51.15153 | -0.18714 | 210 ft | 19 kts | 26° |
| 2026-05-03 20:31 | 51.15290 | -0.18741 | 204 ft | 21 kts | 348° |
| 2026-05-03 20:31 | 51.15444 | -0.18793 | 204 ft | 24 kts | 348° |
| 2026-05-03 20:31 | 51.15591 | -0.18798 | 210 ft | 13 kts | 43° |
| 2026-05-03 20:32 | 51.15599 | -0.18715 | 207 ft | 8 kts | 92° |
| 2026-05-03 20:32 | 51.15611 | -0.18602 | 211 ft | 12 kts | 77° |
| 2026-05-03 20:32 | 51.15633 | -0.18449 | 209 ft | 16 kts | 77° |
| 2026-05-03 20:32 | 51.15660 | -0.18258 | 211 ft | 19 kts | 77° |
| 2026-05-03 20:33 | 51.15692 | -0.18035 | 215 ft | 22 kts | 77° |
| 2026-05-03 20:33 | 51.15729 | -0.17785 | 204 ft | 25 kts | 76° |
| 2026-05-03 20:33 | 51.15765 | -0.17507 | 215 ft | 27 kts | 78° |
| 2026-05-03 20:33 | 51.15809 | -0.17204 | 214 ft | 29 kts | 77° |
| 2026-05-03 20:34 | 51.15864 | -0.17082 | 214 ft | 9 kts | 18° |
| 2026-05-03 20:34 | 51.15946 | -0.16997 | 209 ft | 18 kts | 51° |
| 2026-05-03 20:34 | 51.15973 | -0.16789 | 209 ft | 21 kts | 101° |
| 2026-05-03 20:34 | 51.15890 | -0.16637 | 207 ft | 12 kts | 178° |
| 2026-05-03 20:35 | 51.15868 | -0.16663 | 210 ft | 1 kts | 251° |
| 2026-05-03 20:35 | 51.15859 | -0.16698 | 213 ft | 6 kts | 248° |